Terminal Aerodrome Forecast
Issued by NWS

Home | Current Version | Previous Version | Text Only | Print | Product List | Glossary On
Versions: 1 2 3 4 5 6 7 8 9 10 11 12 13 14 15 16 17 18 19 20 21 22 23 24
000
FTUS46 KSGX 251120
TAFSAN
TAF
KSAN 251120Z 2512/2618 VRB03KT P6SM VCFG FEW003
     FM251600 19006KT P6SM SCT005
     FM260500 VRB04KT 2SM BR VCFG BKN004
     FM260800 VRB03KT 1SM BR BKN002
     FM261400 VRB03KT 6SM BR VCFG SCT005=

USA.gov is the U.S. government's official web portal to all federal, state and local government web resources and services.